Pine Valley, Utah
Current Conditions -  °F | °C
As of 3:35 AM on Saturday 25 Oct 2014 (Local Time) from KSGU Reporting Station
Clear Clear  
Wind Chill: 55°   Ceiling: Unl
Heat Index: 55°   Visibility: 10mi
Dew Point: 30°   Wind: 3mph
Humidity: 38%   Direction: 200°SSW
Pressure: 30.13"   Gusts: NA
Location:  37.39°N, 113.52°W
Report Text: KSGU 250935Z AUTO 20003KT 10SM CLR 13/M01 A3013 RMK AO1
Loading
Personal Weather Stations






























Interactive Weather Map
Tropical Storm Tracking
New forecast layout! Learn more

10-Day Weather Forecast

Advertisements
Track Severe Weather on mobile